createdAt,value
2016-05-30T00:00:24.981Z,0
2016-05-30T00:01:24.797Z,0
2016-05-30T00:02:24.783Z,0
2016-05-30T00:03:24.927Z,0
2016-05-30T00:04:24.899Z,0
2016-05-30T00:05:24.730Z,0
2016-05-30T00:06:25.576Z,0
2016-05-30T00:07:25.219Z,0
2016-05-30T00:08:24.846Z,0
2016-05-30T00:09:24.802Z,0
2016-05-30T00:10:24.790Z,0
2016-05-30T00:11:24.465Z,0
2016-05-30T00:12:24.763Z,0
2016-05-30T00:13:24.751Z,0
2016-05-30T00:14:24.723Z,0
2016-05-30T00:15:24.537Z,0
2016-05-30T00:16:24.696Z,0
2016-05-30T00:17:24.527Z,0
2016-05-30T00:18:24.654Z,0
2016-05-30T00:19:24.486Z,0
2016-05-30T00:20:24.473Z,0
2016-05-30T00:21:24.741Z,0
2016-05-30T00:22:24.650Z,0
2016-05-30T00:23:24.575Z,0
2016-05-30T00:24:24.405Z,0
2016-05-30T00:25:24.377Z,0
2016-05-30T00:26:24.519Z,0
2016-05-30T00:27:24.507Z,0
2016-05-30T00:28:24.495Z,0
2016-05-30T00:29:24.481Z,0
2016-05-30T00:30:24.453Z,0
2016-05-30T00:31:24.424Z,0
2016-05-30T00:32:24.427Z,0
2016-05-30T00:33:24.398Z,0
2016-05-30T00:34:24.385Z,0
2016-05-30T00:35:24.372Z,0
2016-05-30T00:36:24.500Z,0
2016-05-30T00:37:25.144Z,0
2016-05-30T00:38:24.318Z,0
2016-05-30T00:39:24.304Z,0
2016-05-30T00:40:24.277Z,0
2016-05-30T00:41:24.280Z,0
2016-05-30T00:42:24.235Z,0
2016-05-30T00:43:24.238Z,0
2016-05-30T00:44:23.912Z,0
2016-05-30T00:45:24.196Z,0
2016-05-30T00:46:24.184Z,0
2016-05-30T00:47:24.171Z,0
2016-05-30T00:48:23.985Z,0
2016-05-30T00:49:23.973Z,0
2016-05-30T00:50:24.132Z,0
2016-05-30T00:51:25.962Z,0
2016-05-30T00:52:23.950Z,0
2016-05-30T00:53:24.061Z,0
2016-05-30T00:54:24.048Z,0
2016-05-30T00:55:24.036Z,0
2016-05-30T00:56:24.007Z,0
2016-05-30T00:57:23.978Z,0
2016-05-30T00:58:23.825Z,0
2016-05-30T00:59:23.656Z,0
2016-05-30T01:00:23.939Z,0
2016-05-30T01:01:23.942Z,0
2016-05-30T01:02:23.913Z,0
2016-05-30T01:03:23.885Z,0
2016-05-30T01:04:23.872Z,0
2016-05-30T01:05:23.875Z,0
2016-05-30T01:06:25.565Z,0
2016-05-30T01:07:23.536Z,0
2016-05-30T01:08:23.805Z,0
2016-05-30T01:09:23.776Z,0
2016-05-30T01:10:23.779Z,0
2016-05-30T01:11:23.750Z,0
2016-05-30T01:12:23.737Z,0
2016-05-30T01:13:23.412Z,0
2016-05-30T01:14:23.555Z,0
2016-05-30T01:15:23.667Z,0
2016-05-30T01:16:23.686Z,0
2016-05-30T01:17:23.501Z,0
2016-05-30T01:18:23.629Z,0
2016-05-30T01:19:23.615Z,0
2016-05-30T01:20:23.603Z,0
2016-05-30T01:21:23.965Z,0
2016-05-30T01:22:23.577Z,0
2016-05-30T01:23:23.548Z,0
2016-05-30T01:24:23.520Z,0
2016-05-30T01:25:23.507Z,0
2016-05-30T01:26:23.338Z,0
2016-05-30T01:27:23.325Z,0
2016-05-30T01:28:23.468Z,0
2016-05-30T01:29:23.455Z,0
2016-05-30T01:30:23.427Z,0
2016-05-30T01:31:23.414Z,0
2016-05-30T01:32:23.400Z,0
2016-05-30T01:33:23.372Z,0
2016-05-30T01:34:23.358Z,0
2016-05-30T01:35:23.347Z,0
2016-05-30T01:36:23.443Z,0
2016-05-30T01:37:23.164Z,0
2016-05-30T01:38:23.291Z,0
2016-05-30T01:39:23.122Z,0
2016-05-30T01:40:23.266Z,0
2016-05-30T01:41:23.238Z,0
2016-05-30T01:42:22.912Z,0
2016-05-30T01:43:23.055Z,0
2016-05-30T01:44:23.027Z,0
2016-05-30T01:45:23.170Z,0
2016-05-30T01:46:22.985Z,0
2016-05-30T01:47:22.987Z,0
2016-05-30T01:48:22.803Z,0
2016-05-30T01:49:22.962Z,0
2016-05-30T01:50:23.074Z,0
2016-05-30T01:51:23.748Z,0
2016-05-30T01:52:23.236Z,0
2016-05-30T01:53:22.879Z,0
2016-05-30T01:54:23.006Z,0
2016-05-30T01:55:23.009Z,0
2016-05-30T01:56:22.980Z,0
2016-05-30T01:57:22.983Z,0
2016-05-30T01:58:22.939Z,0
2016-05-30T01:59:22.911Z,0
2016-05-30T02:00:22.897Z,0
2016-05-30T02:01:22.917Z,0
2016-05-30T02:02:22.888Z,0
2016-05-30T02:03:22.874Z,0
2016-05-30T02:04:22.846Z,0
2016-05-30T02:05:22.833Z,0
2016-05-30T02:06:22.820Z,0
2016-05-30T02:07:22.823Z,0
2016-05-30T02:08:22.780Z,0
2016-05-30T02:09:22.749Z,0
2016-05-30T02:10:22.753Z,0
2016-05-30T02:11:22.599Z,0
2016-05-30T02:12:22.696Z,0
2016-05-30T02:13:22.683Z,0
2016-05-30T02:14:22.670Z,0
2016-05-30T02:15:22.673Z,0
2016-05-30T02:16:22.644Z,0
2016-05-30T02:17:22.616Z,0
2016-05-30T02:18:22.446Z,0
2016-05-30T02:19:22.590Z,0
2016-05-30T02:20:22.577Z,0
2016-05-30T02:21:22.829Z,0
2016-05-30T02:22:22.926Z,0
2016-05-30T02:23:22.350Z,0
2016-05-30T02:24:22.353Z,0
2016-05-30T02:25:22.340Z,0
2016-05-30T02:26:22.296Z,0
2016-05-30T02:27:22.314Z,0
2016-05-30T02:28:22.426Z,0
2016-05-30T02:29:22.273Z,0
2016-05-30T02:30:22.400Z,0
2016-05-30T02:31:22.216Z,0
2016-05-30T02:32:22.186Z,0
2016-05-30T02:33:22.362Z,0
2016-05-30T02:34:22.317Z,0
2016-05-30T02:35:21.992Z,0
2016-05-30T02:36:22.619Z,0
2016-05-30T02:37:22.435Z,0
2016-05-30T02:38:22.250Z,0
2016-05-30T02:39:22.265Z,0
2016-05-30T02:40:22.108Z,0
2016-05-30T02:41:22.262Z,0
2016-05-30T02:42:22.292Z,0
2016-05-30T02:43:22.306Z,0
2016-05-30T02:44:22.296Z,0
2016-05-30T02:45:22.278Z,0
2016-05-30T02:46:22.290Z,0
2016-05-30T02:47:22.114Z,0
2016-05-30T02:48:22.095Z,0
2016-05-30T02:49:22.277Z,0
2016-05-30T02:50:22.094Z,0
2016-05-30T02:51:22.164Z,0
2016-05-30T02:52:22.060Z,0
2016-05-30T02:53:22.191Z,0
2016-05-30T02:54:22.024Z,0
2016-05-30T02:55:22.169Z,0
2016-05-30T02:56:21.845Z,0
2016-05-30T02:57:21.990Z,0
2016-05-30T02:58:21.790Z,0
2016-05-30T02:59:22.106Z,0
2016-05-30T03:00:22.079Z,0
2016-05-30T03:01:22.067Z,0
2016-05-30T03:02:22.053Z,0
2016-05-30T03:03:22.026Z,0
2016-05-30T03:04:21.889Z,0
2016-05-30T03:05:22.001Z,0
2016-05-30T03:06:21.973Z,0
2016-05-30T03:07:22.287Z,0
2016-05-30T03:08:21.805Z,0
2016-05-30T03:09:21.918Z,0
2016-05-30T03:10:21.921Z,0
2016-05-30T03:11:21.736Z,0
2016-05-30T03:12:21.879Z,0
2016-05-30T03:13:21.553Z,0
2016-05-30T03:14:21.853Z,0
2016-05-30T03:15:21.809Z,0
2016-05-30T03:16:21.812Z,0
2016-05-30T03:17:21.799Z,0
2016-05-30T03:18:21.645Z,0
2016-05-30T03:19:21.757Z,0
2016-05-30T03:20:21.728Z,0
2016-05-30T03:21:22.075Z,0
2016-05-30T03:22:21.718Z,0
2016-05-30T03:23:21.690Z,0
2016-05-30T03:24:21.521Z,0
2016-05-30T03:25:21.664Z,0
2016-05-30T03:26:21.635Z,0
2016-05-30T03:27:21.621Z,0
2016-05-30T03:28:21.610Z,0
2016-05-30T03:29:21.456Z,0
2016-05-30T03:30:21.599Z,0
2016-05-30T03:31:21.539Z,0
2016-05-30T03:32:21.526Z,0
2016-05-30T03:33:21.513Z,0
2016-05-30T03:34:21.484Z,0
2016-05-30T03:35:21.331Z,0
2016-05-30T03:36:21.350Z,0
2016-05-30T03:37:21.306Z,0
2016-05-30T03:38:21.434Z,0
2016-05-30T03:39:21.265Z,0
2016-05-30T03:40:21.375Z,0
2016-05-30T03:41:21.207Z,0
2016-05-30T03:42:21.210Z,0
2016-05-30T03:43:21.337Z,0
2016-05-30T03:44:21.168Z,0
2016-05-30T03:45:21.171Z,0
2016-05-30T03:46:21.142Z,0
2016-05-30T03:47:21.114Z,0
2016-05-30T03:48:21.257Z,0
2016-05-30T03:49:21.088Z,0
2016-05-30T03:50:21.231Z,0
2016-05-30T03:51:21.422Z,0
2016-05-30T03:52:21.877Z,0
2016-05-30T03:53:21.161Z,0
2016-05-30T03:54:21.148Z,0
2016-05-30T03:55:20.994Z,0
2016-05-30T03:56:21.138Z,0
2016-05-30T03:57:20.953Z,0
2016-05-30T03:58:21.080Z,0
2016-05-30T03:59:21.083Z,0
2016-05-30T04:00:21.040Z,0
2016-05-30T04:01:21.026Z,0
2016-05-30T04:02:20.857Z,0
2016-05-30T04:03:21.000Z,0
2016-05-30T04:04:20.988Z,0
2016-05-30T04:05:20.959Z,0
2016-05-30T04:06:20.790Z,0
2016-05-30T04:07:21.276Z,0
2016-05-30T04:08:20.889Z,0
2016-05-30T04:09:20.735Z,0
2016-05-30T04:10:20.863Z,0
2016-05-30T04:11:20.695Z,0
2016-05-30T04:12:20.837Z,0
2016-05-30T04:13:20.808Z,0
2016-05-30T04:14:20.796Z,0
2016-05-30T04:15:20.783Z,0
2016-05-30T04:16:20.786Z,0
2016-05-30T04:17:20.773Z,0
2016-05-30T04:18:20.588Z,0
2016-05-30T04:19:20.731Z,0
2016-05-30T04:20:20.703Z,0
2016-05-30T04:21:20.705Z,0
2016-05-30T04:22:21.302Z,0
2016-05-30T04:23:20.633Z,0
2016-05-30T04:24:20.619Z,0
2016-05-30T04:25:20.466Z,0
2016-05-30T04:26:20.468Z,0
2016-05-30T04:27:20.268Z,0
2016-05-30T04:28:20.552Z,0
2016-05-30T04:29:20.382Z,0
2016-05-30T04:30:20.526Z,0
2016-05-30T04:31:20.513Z,0
2016-05-30T04:32:20.501Z,0
2016-05-30T04:33:20.331Z,0
2016-05-30T04:34:20.474Z,0
2016-05-30T04:35:20.445Z,0
2016-05-30T04:36:20.417Z,0
2016-05-30T04:37:20.452Z,0
2016-05-30T04:38:20.235Z,0
2016-05-30T04:39:20.378Z,0
2016-05-30T04:40:20.350Z,0
2016-05-30T04:41:20.337Z,0
2016-05-30T04:42:20.167Z,0
2016-05-30T04:43:20.296Z,0
2016-05-30T04:44:20.283Z,0
2016-05-30T04:45:20.269Z,0
2016-05-30T04:46:20.070Z,0
2016-05-30T04:47:19.900Z,0
2016-05-30T04:48:20.215Z,0
2016-05-30T04:49:20.203Z,0
2016-05-30T04:50:20.033Z,4
2016-05-30T04:51:20.161Z,4
2016-05-30T04:52:19.992Z,0
2016-05-30T04:53:20.135Z,4
2016-05-30T04:54:20.122Z,4
2016-05-30T04:55:20.094Z,4
2016-05-30T04:56:20.096Z,8
2016-05-30T04:57:20.068Z,8
2016-05-30T04:58:19.899Z,8
2016-05-30T04:59:20.026Z,8
2016-05-30T05:00:19.997Z,12
2016-05-30T05:01:19.829Z,16
2016-05-30T05:02:19.971Z,20
2016-05-30T05:03:19.943Z,20
2016-05-30T05:04:19.946Z,24
2016-05-30T05:05:19.620Z,28
2016-05-30T05:06:19.904Z,32
2016-05-30T05:07:21.157Z,40
2016-05-30T05:08:19.862Z,44
2016-05-30T05:09:19.850Z,52
2016-05-30T05:10:19.681Z,60
2016-05-30T05:11:19.823Z,68
2016-05-30T05:12:19.811Z,76
2016-05-30T05:13:19.782Z,84
2016-05-30T05:14:19.628Z,96
2016-05-30T05:15:19.772Z,108
2016-05-30T05:16:19.572Z,120
2016-05-30T05:17:19.715Z,132
2016-05-30T05:18:19.686Z,148
2016-05-30T05:19:19.673Z,160
2016-05-30T05:20:19.645Z,176
2016-05-30T05:21:19.726Z,188
2016-05-30T05:22:20.886Z,208
2016-05-30T05:23:19.434Z,220
2016-05-30T05:24:19.609Z,240
2016-05-30T05:25:19.580Z,256
2016-05-30T05:26:19.567Z,276
2016-05-30T05:27:19.539Z,292
2016-05-30T05:28:19.527Z,312
2016-05-30T05:29:19.513Z,332
2016-05-30T05:30:19.499Z,348
2016-05-30T05:31:19.316Z,372
2016-05-30T05:32:19.443Z,388
2016-05-30T05:33:19.274Z,412
2016-05-30T05:34:19.417Z,428
2016-05-30T05:35:19.404Z,448
2016-05-30T05:36:19.391Z,476
2016-05-30T05:37:19.268Z,492
2016-05-30T05:38:19.334Z,516
2016-05-30T05:39:19.352Z,536
2016-05-30T05:40:19.323Z,556
2016-05-30T05:41:19.296Z,580
2016-05-30T05:42:19.267Z,600
2016-05-30T05:43:19.254Z,620
2016-05-30T05:44:19.240Z,644
2016-05-30T05:45:19.228Z,664
2016-05-30T05:46:19.042Z,688
2016-05-30T05:47:19.203Z,704
2016-05-30T05:48:19.017Z,728
2016-05-30T05:49:19.161Z,744
2016-05-30T05:50:19.132Z,764
2016-05-30T05:51:19.119Z,784
2016-05-30T05:52:18.949Z,808
2016-05-30T05:53:19.093Z,824
2016-05-30T05:54:18.987Z,844
2016-05-30T05:55:18.739Z,864
2016-05-30T05:56:19.039Z,880
2016-05-30T05:57:19.041Z,904
2016-05-30T05:58:18.982Z,916
2016-05-30T05:59:18.969Z,936
2016-05-30T06:00:18.972Z,952
2016-05-30T06:01:18.958Z,972
2016-05-30T06:02:18.946Z,988
2016-05-30T06:03:18.917Z,1000
2016-05-30T06:04:18.904Z,1016
2016-05-30T06:05:18.719Z,1048
2016-05-30T06:06:18.972Z,1068
2016-05-30T06:07:19.037Z,1084
2016-05-30T06:08:18.837Z,1100
2016-05-30T06:09:18.793Z,1112
2016-05-30T06:10:18.795Z,1108
2016-05-30T06:11:18.767Z,1124
2016-05-30T06:12:18.754Z,1136
2016-05-30T06:13:18.443Z,1152
2016-05-30T06:14:18.728Z,1164
2016-05-30T06:15:18.699Z,1180
2016-05-30T06:16:18.530Z,1192
2016-05-30T06:17:18.501Z,1204
2016-05-30T06:18:18.645Z,1216
2016-05-30T06:19:18.647Z,1232
2016-05-30T06:20:18.150Z,1240
2016-05-30T06:21:18.590Z,1256
2016-05-30T06:22:18.874Z,1268
2016-05-30T06:23:18.564Z,1280
2016-05-30T06:24:18.536Z,1292
2016-05-30T06:25:18.522Z,1304
2016-05-30T06:26:18.510Z,1312
2016-05-30T06:27:18.325Z,1324
2016-05-30T06:28:19.062Z,1336
2016-05-30T06:29:18.455Z,1348
2016-05-30T06:30:18.443Z,1364
2016-05-30T06:31:18.413Z,1376
2016-05-30T06:32:18.432Z,1392
2016-05-30T06:33:19.872Z,1416
2016-05-30T06:34:18.219Z,1448
2016-05-30T06:35:20.941Z,1500
2016-05-30T06:36:18.365Z,1608
2016-05-30T06:37:18.446Z,1848
2016-05-30T06:38:18.292Z,2732
2016-05-30T06:39:18.279Z,3860
2016-05-30T06:40:19.235Z,4404
2016-05-30T06:41:18.237Z,4604
2016-05-30T06:42:18.241Z,4992
2016-05-30T06:43:18.087Z,5040
2016-05-30T06:44:18.043Z,4664
2016-05-30T06:45:18.186Z,4396
2016-05-30T06:46:18.173Z,3792
2016-05-30T06:47:18.145Z,2600
2016-05-30T06:48:17.975Z,1916
2016-05-30T06:49:18.120Z,1656
2016-05-30T06:50:17.934Z,1648
2016-05-30T06:51:17.967Z,1728
2016-05-30T06:52:18.596Z,1784
2016-05-30T06:53:18.051Z,1792
2016-05-30T06:54:17.897Z,1712
2016-05-30T06:55:18.057Z,1724
2016-05-30T06:56:18.013Z,1744
2016-05-30T06:57:17.984Z,1768
2016-05-30T06:58:17.972Z,1800
2016-05-30T06:59:17.802Z,1916
2016-05-30T07:00:18.992Z,2044
2016-05-30T07:01:17.932Z,2280
2016-05-30T07:02:17.747Z,2624
2016-05-30T07:03:17.875Z,3492
2016-05-30T07:04:17.863Z,4484
2016-05-30T07:05:17.694Z,4308
2016-05-30T07:06:17.680Z,4116
2016-05-30T07:07:18.089Z,3536
2016-05-30T07:08:17.498Z,3380
2016-05-30T07:09:17.610Z,3780
2016-05-30T07:10:17.753Z,4908
2016-05-30T07:11:17.725Z,4932
2016-05-30T07:12:17.712Z,3996
2016-05-30T07:13:18.214Z,3296
2016-05-30T07:14:17.530Z,3236
2016-05-30T07:15:17.673Z,3300
2016-05-30T07:16:17.660Z,3840
2016-05-30T07:17:17.648Z,4056
2016-05-30T07:18:17.651Z,3760
2016-05-30T07:19:17.606Z,3480
2016-05-30T07:20:17.593Z,3044
2016-05-30T07:21:17.580Z,2552
2016-05-30T07:22:18.692Z,2436
2016-05-30T07:23:17.398Z,2656
2016-05-30T07:24:17.525Z,3456
2016-05-30T07:25:17.387Z,3560
2016-05-30T07:26:17.484Z,3148
2016-05-30T07:27:17.472Z,3628
2016-05-30T07:28:17.520Z,3572
2016-05-30T07:29:17.430Z,3132
2016-05-30T07:30:17.433Z,3176
2016-05-30T07:31:17.263Z,3716
2016-05-30T07:32:17.406Z,4232
2016-05-30T07:33:18.002Z,3896
2016-05-30T07:34:17.349Z,3928
2016-05-30T07:35:17.336Z,3928
2016-05-30T07:36:17.324Z,4264
2016-05-30T07:37:17.279Z,4640
2016-05-30T07:38:17.344Z,5316
2016-05-30T07:39:17.268Z,6756
2016-05-30T07:40:19.460Z,7896
2016-05-30T07:41:17.259Z,8076
2016-05-30T07:42:17.246Z,7660
2016-05-30T07:43:17.217Z,7676
2016-05-30T07:44:17.189Z,7524
2016-05-30T07:45:17.191Z,6864
2016-05-30T07:46:17.162Z,6696
2016-05-30T07:47:17.150Z,6756
2016-05-30T07:48:18.043Z,7040
2016-05-30T07:49:16.952Z,7176
2016-05-30T07:50:18.611Z,7016
2016-05-30T07:51:17.082Z,6672
2016-05-30T07:52:16.772Z,6900
2016-05-30T07:53:17.072Z,6848
2016-05-30T07:54:17.028Z,7824
2016-05-30T07:55:18.047Z,7412
2016-05-30T07:56:17.003Z,7956
2016-05-30T07:57:16.989Z,6820
2016-05-30T07:58:16.976Z,6488
2016-05-30T07:59:16.947Z,5624
2016-05-30T08:00:16.919Z,4976
2016-05-30T08:01:16.766Z,4980
2016-05-30T08:02:16.737Z,5528
2016-05-30T08:03:17.224Z,5880
2016-05-30T08:04:16.867Z,6320
2016-05-30T08:05:16.714Z,6076
2016-05-30T08:06:16.826Z,6212
2016-05-30T08:07:16.719Z,6492
2016-05-30T08:08:16.832Z,6608
2016-05-30T08:09:16.647Z,6276
2016-05-30T08:10:16.774Z,6524
2016-05-30T08:11:16.746Z,7096
2016-05-30T08:12:16.732Z,8120
2016-05-30T08:13:16.438Z,8152
2016-05-30T08:14:16.551Z,8556
2016-05-30T08:15:16.694Z,8400
2016-05-30T08:16:16.682Z,8208
2016-05-30T08:17:16.668Z,8560
2016-05-30T08:18:16.655Z,8852
2016-05-30T08:19:16.611Z,8248
2016-05-30T08:20:16.614Z,7696
2016-05-30T08:21:16.445Z,7944
2016-05-30T08:22:17.620Z,8184
2016-05-30T08:23:16.404Z,7516
2016-05-30T08:24:16.561Z,6376
2016-05-30T08:25:16.377Z,6024
2016-05-30T08:26:16.520Z,6396
2016-05-30T08:27:16.523Z,7276
2016-05-30T08:28:16.495Z,8444
2016-05-30T08:29:16.466Z,9288
2016-05-30T08:30:16.453Z,8828
2016-05-30T08:31:16.455Z,8428
2016-05-30T08:32:16.427Z,8448
2016-05-30T08:33:16.258Z,9148
2016-05-30T08:34:16.402Z,9076
2016-05-30T08:35:16.232Z,8740
2016-05-30T08:36:16.219Z,9164
2016-05-30T08:37:16.300Z,9204
2016-05-30T08:38:16.193Z,8584
2016-05-30T08:39:16.336Z,8660
2016-05-30T08:40:16.324Z,8912
2016-05-30T08:41:15.967Z,9640
2016-05-30T08:42:16.283Z,9648
2016-05-30T08:43:16.268Z,9608
2016-05-30T08:44:16.241Z,9416
2016-05-30T08:45:16.227Z,9772
2016-05-30T08:46:16.230Z,9724
2016-05-30T08:47:16.045Z,10176
2016-05-30T08:48:16.204Z,10532
2016-05-30T08:49:16.176Z,10188
2016-05-30T08:50:16.163Z,8972
2016-05-30T08:51:15.994Z,9272
2016-05-30T08:52:16.778Z,10300
2016-05-30T08:53:16.108Z,10244
2016-05-30T08:54:16.095Z,9020
2016-05-30T08:55:16.098Z,9032
2016-05-30T08:56:15.914Z,8156
2016-05-30T08:57:16.042Z,7008
2016-05-30T08:58:16.029Z,4792
2016-05-30T08:59:15.719Z,4112
2016-05-30T09:00:16.017Z,5308
2016-05-30T09:01:16.005Z,5404
2016-05-30T09:02:15.977Z,5252
2016-05-30T09:03:16.370Z,6780
2016-05-30T09:04:15.951Z,6836
2016-05-30T09:05:15.781Z,6808
2016-05-30T09:06:15.597Z,5804
2016-05-30T09:07:16.365Z,6120
2016-05-30T09:08:15.900Z,6160
2016-05-30T09:09:15.871Z,6004
2016-05-30T09:10:15.716Z,4788
2016-05-30T09:11:15.688Z,4232
2016-05-30T09:12:15.832Z,3936
2016-05-30T09:13:15.819Z,3916
2016-05-30T09:14:15.805Z,3868
2016-05-30T09:15:15.652Z,4056
2016-05-30T09:16:15.764Z,4632
2016-05-30T09:17:15.595Z,5216
2016-05-30T09:18:15.738Z,5632
2016-05-30T09:19:15.726Z,5740
2016-05-30T09:20:15.713Z,5056
2016-05-30T09:21:15.746Z,4816
2016-05-30T09:22:15.999Z,4596
2016-05-30T09:23:15.673Z,4432
2016-05-30T09:24:15.645Z,4216
2016-05-30T09:25:15.664Z,4224
2016-05-30T09:26:15.635Z,4308
2016-05-30T09:27:15.653Z,4624
2016-05-30T09:28:15.577Z,4484
2016-05-30T09:29:15.565Z,4428
2016-05-30T09:30:15.567Z,4500
2016-05-30T09:31:15.539Z,4528
2016-05-30T09:32:15.511Z,4732
2016-05-30T09:33:15.514Z,5076
2016-05-30T09:34:15.516Z,5232
2016-05-30T09:35:15.331Z,5496
2016-05-30T09:36:15.318Z,4976
2016-05-30T09:37:16.009Z,5676
2016-05-30T09:38:15.449Z,7724
2016-05-30T09:39:15.419Z,7824
2016-05-30T09:40:15.407Z,8388
2016-05-30T09:41:15.394Z,8296
2016-05-30T09:42:15.365Z,7388
2016-05-30T09:43:15.353Z,7520
2016-05-30T09:44:15.355Z,6520
2016-05-30T09:45:15.357Z,8608
2016-05-30T09:46:15.158Z,10060
2016-05-30T09:47:15.301Z,10540
2016-05-30T09:48:15.428Z,10724
2016-05-30T09:49:15.104Z,10520
2016-05-30T09:50:15.246Z,9960
2016-05-30T09:51:15.077Z,7620
2016-05-30T09:52:15.064Z,7532
2016-05-30T09:53:15.223Z,7788
2016-05-30T09:54:15.022Z,8036
2016-05-30T09:55:15.165Z,8052
2016-05-30T09:56:15.153Z,8352
2016-05-30T09:57:15.203Z,8468
2016-05-30T09:58:14.970Z,8848
2016-05-30T09:59:14.973Z,8932
2016-05-30T10:00:15.117Z,9524
2016-05-30T10:01:15.089Z,9392
2016-05-30T10:02:14.919Z,10744
2016-05-30T10:03:15.062Z,11240
2016-05-30T10:04:15.050Z,12416
2016-05-30T10:05:15.022Z,14004
2016-05-30T10:06:15.039Z,12580
2016-05-30T10:07:15.152Z,11296
2016-05-30T10:08:14.983Z,10996
2016-05-30T10:09:14.798Z,9780
2016-05-30T10:10:14.956Z,11576
2016-05-30T10:11:14.944Z,11004
2016-05-30T10:12:14.775Z,11208
2016-05-30T10:13:14.918Z,10644
2016-05-30T10:14:14.889Z,11336
2016-05-30T10:15:14.877Z,7536
2016-05-30T10:16:14.879Z,7832
2016-05-30T10:17:14.866Z,9460
2016-05-30T10:18:14.837Z,6220
2016-05-30T10:19:14.684Z,5012
2016-05-30T10:20:14.812Z,4892
2016-05-30T10:21:14.829Z,7712
2016-05-30T10:22:14.645Z,9148
2016-05-30T10:23:14.773Z,8776
2016-05-30T10:24:14.760Z,5820
2016-05-30T10:25:14.778Z,6448
2016-05-30T10:26:14.593Z,10428
2016-05-30T10:27:14.737Z,9436
2016-05-30T10:28:14.723Z,12264
2016-05-30T10:29:14.695Z,12524
2016-05-30T10:30:14.682Z,10184
2016-05-30T10:31:14.512Z,8680
2016-05-30T10:32:14.515Z,9500
2016-05-30T10:33:14.503Z,13860
2016-05-30T10:34:14.317Z,10304
2016-05-30T10:35:14.617Z,13424
2016-05-30T10:36:14.620Z,13984
2016-05-30T10:37:14.592Z,10660
2016-05-30T10:38:14.563Z,11352
2016-05-30T10:39:14.550Z,15144
2016-05-30T10:40:14.380Z,13832
2016-05-30T10:41:14.556Z,11052
2016-05-30T10:42:14.527Z,10072
2016-05-30T10:43:14.545Z,8780
2016-05-30T10:44:14.611Z,10644
2016-05-30T10:45:14.347Z,8460
2016-05-30T10:46:14.459Z,8060
2016-05-30T10:47:14.306Z,7788
2016-05-30T10:48:14.293Z,7132
2016-05-30T10:49:14.295Z,6880
2016-05-30T10:50:14.407Z,7476
2016-05-30T10:51:14.411Z,8468
2016-05-30T10:52:15.273Z,8432
2016-05-30T10:53:14.447Z,8780
2016-05-30T10:54:14.372Z,8560
2016-05-30T10:55:14.327Z,8656
2016-05-30T10:56:14.330Z,12708
2016-05-30T10:57:14.396Z,12376
2016-05-30T10:58:14.164Z,12948
2016-05-30T10:59:14.307Z,11360
2016-05-30T11:00:14.294Z,12248
2016-05-30T11:01:14.125Z,11800
2016-05-30T11:02:14.268Z,12268
2016-05-30T11:03:14.098Z,12832
2016-05-30T11:04:14.086Z,12768
2016-05-30T11:05:14.073Z,11572
2016-05-30T11:06:14.200Z,10712
2016-05-30T11:07:14.172Z,9872
2016-05-30T11:08:14.144Z,9532
2016-05-30T11:09:14.146Z,10124
2016-05-30T11:10:14.133Z,11188
2016-05-30T11:11:14.120Z,11600
2016-05-30T11:12:14.108Z,12068
2016-05-30T11:13:13.938Z,13008
2016-05-30T11:14:14.050Z,10512
2016-05-30T11:15:28.100Z,10596
2016-05-30T11:16:14.055Z,15348
2016-05-30T11:17:14.043Z,14128
2016-05-30T11:18:14.014Z,12060
2016-05-30T11:19:13.861Z,10580
2016-05-30T11:20:14.019Z,10140
2016-05-30T11:21:13.991Z,10680
2016-05-30T11:22:14.619Z,11624
2016-05-30T11:23:13.966Z,12612
2016-05-30T11:24:13.952Z,14260
2016-05-30T11:25:13.924Z,19488
2016-05-30T11:26:13.926Z,68512
2016-05-30T11:27:13.913Z,103328
2016-05-30T11:28:13.744Z,107200
2016-05-30T11:29:13.888Z,109248
2016-05-30T11:30:13.718Z,25152
2016-05-30T11:31:13.862Z,26336
2016-05-30T11:32:13.864Z,110624
2016-05-30T11:33:13.836Z,84640
2016-05-30T11:34:13.854Z,12796
2016-05-30T11:35:13.826Z,13536
2016-05-30T11:36:13.812Z,10984
2016-05-30T11:37:13.847Z,8988
2016-05-30T11:38:13.630Z,9824
2016-05-30T11:39:13.790Z,8844
2016-05-30T11:40:13.792Z,13320
2016-05-30T11:41:13.622Z,29024
2016-05-30T11:42:13.766Z,11476
2016-05-30T11:43:13.597Z,12564
2016-05-30T11:44:13.741Z,12152
2016-05-30T11:45:13.742Z,13864
2016-05-30T11:46:13.766Z,31232
2016-05-30T11:47:13.805Z,111552
2016-05-30T11:48:13.796Z,113088
2016-05-30T11:49:13.803Z,112800
2016-05-30T11:50:13.645Z,112448
2016-05-30T11:51:13.796Z,112384
2016-05-30T11:52:13.790Z,110592
2016-05-30T11:53:13.800Z,114656
2016-05-30T11:54:13.794Z,111424
2016-05-30T11:55:13.644Z,103648
2016-05-30T11:56:13.790Z,14216
2016-05-30T11:57:13.764Z,54528
2016-05-30T11:58:13.644Z,31200
2016-05-30T11:59:13.775Z,16852
2016-05-30T12:00:13.639Z,15096
2016-05-30T12:01:13.783Z,20800
2016-05-30T12:02:13.772Z,20352
2016-05-30T12:03:13.760Z,21120
2016-05-30T12:04:13.763Z,21888
2016-05-30T12:05:13.752Z,22432
2016-05-30T12:06:13.755Z,24352
2016-05-30T12:07:14.758Z,16280
2016-05-30T12:08:13.761Z,14568
2016-05-30T12:09:13.592Z,18272
2016-05-30T12:10:13.751Z,18624
2016-05-30T12:11:13.426Z,24032
2016-05-30T12:12:13.725Z,22944
2016-05-30T12:13:13.728Z,14472
2016-05-30T12:14:13.573Z,21056
2016-05-30T12:15:13.717Z,20512
2016-05-30T12:16:13.720Z,21184
2016-05-30T12:17:13.551Z,12916
2016-05-30T12:18:13.710Z,13228
2016-05-30T12:19:13.712Z,22752
2016-05-30T12:20:13.403Z,17116
2016-05-30T12:21:13.703Z,13620
2016-05-30T12:22:14.049Z,15780
2016-05-30T12:23:13.692Z,23680
2016-05-30T12:24:13.695Z,22976
2016-05-30T12:25:13.666Z,23264
2016-05-30T12:26:13.544Z,20256
2016-05-30T12:27:13.531Z,14596
2016-05-30T12:28:13.549Z,15596
2016-05-30T12:29:13.974Z,16340
2016-05-30T12:30:13.680Z,14228
2016-05-30T12:31:13.511Z,14880
2016-05-30T12:32:13.685Z,16180
2016-05-30T12:33:14.016Z,25600
2016-05-30T12:34:13.659Z,23456
2016-05-30T12:35:13.646Z,22272
2016-05-30T12:36:13.633Z,21568
2016-05-30T12:37:13.996Z,22336
2016-05-30T12:38:13.623Z,15072
2016-05-30T12:39:13.626Z,24576
2016-05-30T12:40:13.629Z,18752
2016-05-30T12:41:13.600Z,15660
2016-05-30T12:42:13.618Z,18336
2016-05-30T12:43:13.637Z,35744
2016-05-30T12:44:13.655Z,18336
2016-05-30T12:45:13.595Z,16012
2016-05-30T12:46:13.426Z,13812
2016-05-30T12:47:13.569Z,12432
2016-05-30T12:48:13.573Z,14780
2016-05-30T12:49:13.606Z,96448
2016-05-30T12:50:13.562Z,94912
2016-05-30T12:51:13.548Z,97696
2016-05-30T12:52:14.051Z,94464
2016-05-30T12:53:13.554Z,91968
2016-05-30T12:54:13.541Z,93664
2016-05-30T12:55:13.544Z,22784
2016-05-30T12:56:21.031Z,36320
2016-05-30T12:57:13.534Z,33248
2016-05-30T12:58:13.521Z,38560
2016-05-30T12:59:13.539Z,99456
2016-05-30T13:00:13.526Z,101184
2016-05-30T13:01:13.513Z,90176
2016-05-30T13:02:13.532Z,94240
2016-05-30T13:03:13.518Z,92448
2016-05-30T13:04:13.505Z,95200
2016-05-30T13:05:13.196Z,95744
2016-05-30T13:06:13.511Z,88256
2016-05-30T13:07:13.389Z,81664
2016-05-30T13:08:13.485Z,84480
2016-05-30T13:09:13.551Z,83872
2016-05-30T13:10:13.319Z,70976
2016-05-30T13:11:13.477Z,24864
2016-05-30T13:12:13.480Z,16544
2016-05-30T13:13:13.467Z,56480
2016-05-30T13:14:13.470Z,89088
2016-05-30T13:15:13.442Z,93856
2016-05-30T13:16:13.459Z,98752
2016-05-30T13:17:13.447Z,99008
2016-05-30T13:18:13.465Z,95360
2016-05-30T13:19:13.436Z,96224
2016-05-30T13:20:13.439Z,101888
2016-05-30T13:21:13.473Z,98624
2016-05-30T13:22:13.414Z,96544
2016-05-30T13:23:13.431Z,98976
2016-05-30T13:24:13.481Z,95328
2016-05-30T13:25:13.281Z,91296
2016-05-30T13:26:13.439Z,96704
2016-05-30T13:27:13.427Z,104352
2016-05-30T13:28:13.414Z,100192
2016-05-30T13:29:13.400Z,103360
2016-05-30T13:30:13.403Z,105664
2016-05-30T13:31:13.266Z,101504
2016-05-30T13:32:13.252Z,102528
2016-05-30T13:33:13.397Z,103168
2016-05-30T13:34:13.399Z,102528
2016-05-30T13:35:13.416Z,101792
2016-05-30T13:36:13.389Z,105792
2016-05-30T13:37:14.891Z,107136
2016-05-30T13:38:13.550Z,113248
2016-05-30T13:39:13.428Z,110624
2016-05-30T13:40:13.384Z,103936
2016-05-30T13:41:13.402Z,104384
2016-05-30T13:42:13.702Z,23296
2016-05-30T13:43:13.376Z,67616